Terminal Aerodrome Forecast
Issued by NWS

Home | Current Version | Previous Version | Text Only | Print | Product List | Glossary On
Versions: 1 2 3 4 5 6 7 8 9 10 11 12 13 14 15 16 17 18 19 20 21 22 23 24 25 26 27 28 29 30 31 32 33 34 35 36 37 38 39 40 41 42 43 44 45 46 47
000
FTUS45 KGJT 270623 AAA
TAFASE
TAF AMD
KASE 270623Z 2706/2806 36005KT P6SM VCSH SCT020 BKN070
     FM271000 21004KT 4SM BR SCT015 BKN030
     FM271500 VRB03KT P6SM SCT025 BKN040
     FM271800 35007KT P6SM VCSH SCT030 BKN050
      TEMPO 2720/2724 -SHRA BKN030
     FM280200 16007KT P6SM VCSH SCT030 BKN050=

USA.gov is the U.S. government's official web portal to all federal, state and local government web resources and services.